Bookmark and Share
Track history (hours):
 

Global Glory

Last reported at 2014-Apr-10 15:32 UTC. Time now 2014-Apr-20 05:53 UTC.
Position N 01°12' E 103°33'.
Warning: this ship's position is 9 days out of date.

Length 189 m; draft 11.3 m.

Type: Ship. MMSI: 354338000.

NotesDate/timePositionNaut miles runAvg speedWind from/ knotsBaromVisibWave heightAir tempDewpointWater temp
2014-Apr-10 15:32N 01°12' E 103°33'1212.6
2014-Apr-10 14:34N 01°08' E 103°44'1312.4
2014-Apr-10 13:30N 01°14' E 103°56'3 0.4
2014-Apr-10 07:17N 01°16' E 103°57'0 0.0
2014-Apr-10 02:06N 01°16' E 103°57'  
2014-Apr-04 23:19N 22°09' E 117°00'3512.6
2014-Apr-04 20:33N 22°42' E 117°14'3611.9
2014-Apr-04 17:30N 23°15' E 117°30'2711.0
2014-Apr-04 15:06N 23°32' E 117°52'711.1
2014-Apr-04 14:30N 23°36' E 117°58'1111.5
2014-Apr-04 13:33N 23°43' E 118°07'1411.9
2014-Apr-04 12:23N 23°52' E 118°18'4112.7
2014-Apr-04 09:08N 24°19' E 118°53'35812.5
2014-Apr-03 04:30N 29°18' E 122°34'354 9.8
2014-Apr-01 16:17N 34°51' E 120°14'1013.1
2014-Apr-01 15:32N 34°51' E 120°02'1212.2
2014-Apr-01 14:32N 34°52' E 119°47'8 8.5
2014-Apr-01 13:33N 34°48' E 119°38'9 9.0
2014-Apr-01 12:34N 34°45' E 119°28'4 4.0
2014-Apr-01 11:33N 34°45' E 119°23'0 0.0
2014-Apr-01 10:34N 34°45' E 119°23'0 0.0
2014-Apr-01 09:28N 34°45' E 119°23'0 0.0
2014-Apr-01 08:31N 34°45' E 119°23'0 0.0
2014-Apr-01 07:31N 34°45' E 119°23'0 0.0
2014-Apr-01 06:31N 34°45' E 119°23'0 0.0
2014-Apr-01 05:28N 34°45' E 119°23'0 0.0
2014-Apr-01 04:28N 34°45' E 119°23'0 0.0
2014-Apr-01 03:30N 34°45' E 119°23'0 0.0
2014-Apr-01 02:25N 34°45' E 119°23'0 0.1
2014-Apr-01 01:31N 34°45' E 119°23'0 0.0
2014-Apr-01 00:28N 34°45' E 119°23'0 0.0
2014-Mar-31 23:31N 34°45' E 119°23'0 0.0
2014-Mar-31 22:28N 34°45' E 119°23'0 0.0
2014-Mar-31 21:31N 34°45' E 119°23'0 0.0
2014-Mar-31 20:31N 34°45' E 119°23'0 0.0
2014-Mar-31 19:31N 34°45' E 119°23'0 0.0
2014-Mar-31 18:28N 34°45' E 119°23'0 0.1
2014-Mar-31 17:31N 34°45' E 119°23'0 0.0
2014-Mar-31 16:28N 34°45' E 119°23'  

Dump ship's entire track history

sailing weather and tide predictions

Global Glory — 3FHR8 — position and weather